createdAt,value
2023-11-25T00:01:06.575Z,100245.66
2023-11-25T00:03:34.726Z,100250.78
2023-11-25T00:06:02.723Z,100241.38
2023-11-25T00:08:30.886Z,100244.88
2023-11-25T00:10:59.185Z,100241.47
2023-11-25T00:13:27.309Z,100246.66
2023-11-25T00:15:56.089Z,100245.00
2023-11-25T00:18:24.986Z,100245.91
2023-11-25T00:20:53.085Z,100243.41
2023-11-25T00:23:21.125Z,100247.53
2023-11-25T00:25:49.145Z,100241.38
2023-11-25T00:28:18.189Z,100239.41
2023-11-25T00:30:47.108Z,100238.34
2023-11-25T00:33:15.377Z,100232.91
2023-11-25T00:35:44.062Z,100239.78
2023-11-25T00:38:12.029Z,100231.13
2023-11-25T00:40:40.012Z,100229.19
2023-11-25T00:43:08.323Z,100229.03
2023-11-25T00:45:37.887Z,100216.88
2023-11-25T00:48:08.152Z,100210.72
2023-11-25T00:50:36.262Z,100214.16
2023-11-25T00:53:04.200Z,100213.31
2023-11-25T00:55:32.168Z,100208.22
2023-11-25T00:58:00.638Z,100211.56
2023-11-25T01:00:31.995Z,100195.97
2023-11-25T01:03:00.149Z,100196.84
2023-11-25T01:05:28.120Z,100183.13
2023-11-25T01:07:56.502Z,100186.63
2023-11-25T01:10:24.761Z,100187.50
2023-11-25T01:12:52.619Z,100179.06
2023-11-25T01:15:21.073Z,100188.63
2023-11-25T01:17:49.070Z,100173.88
2023-11-25T01:20:19.020Z,100173.78
2023-11-25T01:22:49.489Z,100176.34
2023-11-25T01:25:18.122Z,100169.38
2023-11-25T01:27:46.295Z,100163.34
2023-11-25T01:30:17.781Z,100160.78
2023-11-25T01:32:45.842Z,100167.72
2023-11-25T01:35:14.501Z,100163.47
2023-11-25T01:37:42.881Z,100159.16
2023-11-25T01:40:13.687Z,100160.28
2023-11-25T01:42:41.687Z,100166.44
2023-11-25T01:45:11.070Z,100156.19
2023-11-25T01:47:39.547Z,100158.06
2023-11-25T01:50:09.230Z,100167.66
2023-11-25T01:52:39.191Z,100162.53
2023-11-25T01:55:10.097Z,100153.13
2023-11-25T01:57:38.851Z,100165.16
2023-11-25T02:00:10.838Z,100169.50
2023-11-25T02:02:39.218Z,100172.09
2023-11-25T02:05:09.536Z,100179.03
2023-11-25T02:07:38.472Z,100176.38
2023-11-25T02:10:10.820Z,100172.09
2023-11-25T02:12:40.922Z,100173.00
2023-11-25T02:15:13.036Z,100173.06
2023-11-25T02:17:43.978Z,100166.31
2023-11-25T02:20:15.774Z,100174.06
2023-11-25T02:22:59.893Z,100171.59
2023-11-25T02:25:28.793Z,100158.66
2023-11-25T02:27:57.447Z,100166.41
2023-11-25T02:30:26.270Z,100168.13
2023-11-25T02:32:55.446Z,100165.50
2023-11-25T02:35:23.461Z,100155.22
2023-11-25T02:37:51.977Z,100161.16
2023-11-25T02:40:20.448Z,100154.19
2023-11-25T02:42:49.752Z,100146.41
2023-11-25T02:45:24.238Z,100143.81
2023-11-25T02:47:53.698Z,100141.97
2023-11-25T02:50:22.979Z,100141.88
2023-11-25T02:52:51.036Z,100132.28
2023-11-25T02:55:19.150Z,100124.44
2023-11-25T02:57:48.596Z,100131.28
2023-11-25T03:00:29.493Z,100126.00
2023-11-25T03:03:10.926Z,100122.44
2023-11-25T03:05:39.829Z,100127.44
2023-11-25T03:08:11.375Z,100123.81
2023-11-25T03:10:42.829Z,100128.72
2023-11-25T03:13:13.097Z,100149.22
2023-11-25T03:15:41.589Z,100170.47
2023-11-25T03:18:10.570Z,100166.28
2023-11-25T03:20:40.895Z,100156.88
2023-11-25T03:23:09.087Z,100164.63
2023-11-25T03:25:38.895Z,100166.13
2023-11-25T03:28:10.047Z,100161.72
2023-11-25T03:30:38.406Z,100174.69
2023-11-25T03:33:08.951Z,100177.25
2023-11-25T03:35:37.124Z,100184.97
2023-11-25T03:38:05.111Z,100178.13
2023-11-25T03:40:34.423Z,100183.31
2023-11-25T03:43:02.931Z,100177.28
2023-11-25T03:45:30.933Z,100176.44
2023-11-25T03:48:00.859Z,100176.41
2023-11-25T03:50:29.427Z,100178.91
2023-11-25T03:52:58.107Z,100167.66
2023-11-25T03:55:26.171Z,100171.03
2023-11-25T03:57:54.211Z,100152.97
2023-11-25T04:00:24.313Z,100150.28
2023-11-25T04:02:54.017Z,100131.22
2023-11-25T04:05:23.949Z,100141.47
2023-11-25T04:07:52.009Z,100131.88
2023-11-25T04:10:21.581Z,100132.66
2023-11-25T04:12:52.480Z,100120.47
2023-11-25T04:15:22.004Z,100135.22
2023-11-25T04:17:53.129Z,100136.09
2023-11-25T04:20:29.486Z,100157.75
2023-11-25T04:23:01.048Z,100179.09
2023-11-25T04:25:29.503Z,100183.91
2023-11-25T04:27:57.972Z,100194.03
2023-11-25T04:30:26.232Z,100191.28
2023-11-25T04:32:54.341Z,100192.84
2023-11-25T04:35:22.570Z,100188.34
2023-11-25T04:37:50.566Z,100189.88
2023-11-25T04:40:19.773Z,100191.47
2023-11-25T04:42:47.887Z,100180.19
2023-11-25T04:45:18.502Z,100183.53
2023-11-25T04:47:48.657Z,100188.72
2023-11-25T04:50:18.836Z,100191.19
2023-11-25T04:52:47.108Z,100194.53
2023-11-25T04:55:16.331Z,100190.13
2023-11-25T04:57:45.433Z,100197.03
2023-11-25T05:00:16.230Z,100194.47
2023-11-25T05:02:44.681Z,100185.78
2023-11-25T05:05:14.215Z,100198.59
2023-11-25T05:07:43.736Z,100191.59
2023-11-25T05:10:12.710Z,100186.34
2023-11-25T05:12:44.160Z,100183.78
2023-11-25T05:15:13.488Z,100183.78
2023-11-25T05:17:42.522Z,100195.03
2023-11-25T05:20:17.590Z,100185.53
2023-11-25T05:22:46.709Z,100182.09
2023-11-25T05:25:16.917Z,100171.78
2023-11-25T05:27:46.080Z,100166.59
2023-11-25T05:30:15.202Z,100151.88
2023-11-25T05:32:45.257Z,100150.22
2023-11-25T05:35:15.658Z,100133.84
2023-11-25T05:37:46.171Z,100127.03
2023-11-25T05:40:16.612Z,100122.84
2023-11-25T05:42:49.706Z,100115.16
2023-11-25T05:45:19.585Z,100123.78
2023-11-25T05:47:48.241Z,100115.25
2023-11-25T05:50:22.004Z,100112.75
2023-11-25T05:52:52.032Z,100115.34
2023-11-25T05:55:22.204Z,100117.25
2023-11-25T05:57:53.771Z,100104.50
2023-11-25T06:00:24.279Z,100103.03
2023-11-25T06:02:54.402Z,100098.78
2023-11-25T06:05:23.027Z,100095.38
2023-11-25T06:07:51.115Z,100095.47
2023-11-25T06:10:21.537Z,100109.34
2023-11-25T06:12:50.033Z,100105.84
2023-11-25T06:15:21.117Z,100114.44
2023-11-25T06:17:49.198Z,100110.97
2023-11-25T06:20:18.598Z,100105.69
2023-11-25T06:22:46.603Z,100104.81
2023-11-25T06:25:17.116Z,100110.16
2023-11-25T06:27:48.226Z,100100.63
2023-11-25T06:30:17.513Z,100111.09
2023-11-25T06:32:45.605Z,100105.03
2023-11-25T06:35:14.181Z,100104.25
2023-11-25T06:37:42.937Z,100104.34
2023-11-25T06:40:14.230Z,100100.81
2023-11-25T06:42:44.173Z,100109.44
2023-11-25T06:45:15.456Z,100111.25
2023-11-25T06:47:44.756Z,100111.25
2023-11-25T06:50:13.504Z,100109.44
2023-11-25T06:52:41.787Z,100112.94
2023-11-25T06:55:10.869Z,100100.94
2023-11-25T06:57:40.271Z,100108.63
2023-11-25T07:00:12.715Z,100103.63
2023-11-25T07:02:42.534Z,100109.84
2023-11-25T07:05:11.674Z,100097.78
2023-11-25T07:07:39.903Z,100108.25
2023-11-25T07:10:11.439Z,100110.03
2023-11-25T07:12:40.372Z,100120.16
2023-11-25T07:15:09.575Z,100119.16
2023-11-25T07:17:40.184Z,100113.03
2023-11-25T07:20:14.845Z,100127.59
2023-11-25T07:22:44.412Z,100137.94
2023-11-25T07:25:15.950Z,100131.91
2023-11-25T07:27:46.636Z,100135.38
2023-11-25T07:30:16.899Z,100143.03
2023-11-25T07:32:46.402Z,100146.50
2023-11-25T07:35:14.896Z,100150.69
2023-11-25T07:37:42.962Z,100152.41
2023-11-25T07:40:15.321Z,100150.69
2023-11-25T07:42:47.241Z,100161.06
2023-11-25T07:45:15.400Z,100165.25
2023-11-25T07:47:45.511Z,100168.53
2023-11-25T07:50:14.187Z,100165.81
2023-11-25T07:52:42.369Z,100167.47
2023-11-25T07:55:12.230Z,100163.25
2023-11-25T07:57:40.785Z,100168.59
2023-11-25T08:00:13.360Z,100173.88
2023-11-25T08:02:41.367Z,100176.56
2023-11-25T08:05:10.931Z,100178.34
2023-11-25T08:07:39.768Z,100179.94
2023-11-25T08:10:09.017Z,100179.25
2023-11-25T08:12:37.123Z,100185.13
2023-11-25T08:15:06.325Z,100198.03
2023-11-25T08:17:34.265Z,100204.00
2023-11-25T08:20:02.637Z,100207.44
2023-11-25T08:22:30.628Z,100215.31
2023-11-25T08:25:01.494Z,100211.00
2023-11-25T08:27:31.772Z,100215.28
2023-11-25T08:29:59.792Z,100209.22
2023-11-25T08:32:28.135Z,100218.63
2023-11-25T08:34:56.215Z,100221.22
2023-11-25T08:37:28.596Z,100232.41
2023-11-25T08:40:00.285Z,100237.50
2023-11-25T08:42:31.729Z,100231.41
2023-11-25T08:45:02.343Z,100225.25
2023-11-25T08:47:30.922Z,100229.53
2023-11-25T08:49:59.033Z,100229.44
2023-11-25T08:52:28.454Z,100241.50
2023-11-25T08:54:56.756Z,100243.13
2023-11-25T08:57:24.746Z,100242.13
2023-11-25T08:59:52.810Z,100244.53
2023-11-25T09:02:23.784Z,100240.19
2023-11-25T09:05:03.632Z,100243.56
2023-11-25T09:07:39.096Z,100242.69
2023-11-25T09:10:08.697Z,100249.50
2023-11-25T09:12:37.870Z,100259.09
2023-11-25T09:15:07.965Z,100264.94
2023-11-25T09:17:39.654Z,100272.63
2023-11-25T09:20:17.979Z,100267.34
2023-11-25T09:22:47.089Z,100264.66
2023-11-25T09:25:15.941Z,100262.84
2023-11-25T09:27:45.341Z,100268.75
2023-11-25T09:30:15.761Z,100273.06
2023-11-25T09:32:45.674Z,100277.34
2023-11-25T09:35:18.113Z,100275.56
2023-11-25T09:37:49.614Z,100278.03
2023-11-25T09:40:19.725Z,100277.94
2023-11-25T09:42:49.547Z,100286.44
2023-11-25T09:45:17.964Z,100288.09
2023-11-25T09:47:47.235Z,100283.63
2023-11-25T09:50:15.842Z,100280.09
2023-11-25T09:52:56.767Z,100284.22
2023-11-25T09:55:26.199Z,100287.47
2023-11-25T09:58:10.278Z,100290.84
2023-11-25T10:00:39.936Z,100290.63
2023-11-25T10:03:15.276Z,100297.31
2023-11-25T10:05:44.688Z,100292.81
2023-11-25T10:08:13.549Z,100292.56
2023-11-25T10:10:41.484Z,100300.91
2023-11-25T10:13:18.400Z,100309.13
2023-11-25T10:15:49.224Z,100308.63
2023-11-25T10:18:17.429Z,100299.59
2023-11-25T10:20:46.948Z,100302.81
2023-11-25T10:23:24.820Z,100300.84
2023-11-25T10:25:54.178Z,100307.72
2023-11-25T10:28:26.941Z,100304.78
2023-11-25T10:31:00.856Z,100307.22
2023-11-25T10:33:29.857Z,100306.38
2023-11-25T10:35:59.555Z,100311.34
2023-11-25T10:38:29.651Z,100297.47
2023-11-25T10:41:07.518Z,100297.31
2023-11-25T10:43:36.076Z,100280.84
2023-11-25T10:46:12.657Z,100274.88
2023-11-25T10:48:41.635Z,100279.00
2023-11-25T10:51:10.520Z,100272.97
2023-11-25T10:53:42.462Z,100272.97
2023-11-25T10:56:10.683Z,100273.19
2023-11-25T10:58:39.319Z,100277.56
2023-11-25T11:01:07.724Z,100286.94
2023-11-25T11:04:21.778Z,100304.91
2023-11-25T11:06:55.816Z,100308.34
2023-11-25T11:09:29.112Z,100297.88
2023-11-25T11:12:04.950Z,100296.34
2023-11-25T11:14:42.683Z,100300.25
2023-11-25T11:17:31.018Z,100300.47
2023-11-25T11:20:01.375Z,100300.41
2023-11-25T11:22:30.513Z,100296.09
2023-11-25T11:25:17.702Z,100295.25
2023-11-25T11:28:23.754Z,100286.78
2023-11-25T11:31:48.274Z,100298.16
2023-11-25T11:34:16.300Z,100292.88
2023-11-25T11:36:44.254Z,100294.53
2023-11-25T11:39:33.322Z,100297.09
2023-11-25T11:42:26.461Z,100297.25
2023-11-25T11:45:22.919Z,100297.88
2023-11-25T11:47:54.129Z,100296.84
2023-11-25T11:50:30.510Z,100294.19
2023-11-25T11:53:04.582Z,100295.69
2023-11-25T11:55:41.594Z,100295.88
2023-11-25T11:58:15.402Z,100288.66
2023-11-25T12:00:54.521Z,100286.59
2023-11-25T12:03:23.337Z,100282.84
2023-11-25T12:05:52.836Z,100290.72
2023-11-25T12:08:22.628Z,100293.97
2023-11-25T12:10:51.814Z,100290.53
2023-11-25T12:13:33.981Z,100291.59
2023-11-25T12:16:04.952Z,100303.06
2023-11-25T12:18:35.932Z,100305.72
2023-11-25T12:21:06.463Z,100301.34
2023-11-25T12:23:44.797Z,100308.38
2023-11-25T12:26:24.656Z,100309.28
2023-11-25T12:28:52.637Z,100317.16
2023-11-25T12:31:21.172Z,100321.47
2023-11-25T12:33:49.530Z,100327.53
2023-11-25T12:36:17.950Z,100331.03
2023-11-25T12:38:46.891Z,100336.25
2023-11-25T12:41:16.497Z,100334.56
2023-11-25T12:44:11.613Z,100337.94
2023-11-25T12:46:43.873Z,100350.19
2023-11-25T12:49:22.504Z,100345.09
2023-11-25T12:51:52.423Z,100345.09
2023-11-25T12:54:22.494Z,100352.13
2023-11-25T12:56:55.898Z,100352.25
2023-11-25T12:59:30.089Z,100354.75
2023-11-25T13:02:14.635Z,100359.13
2023-11-25T13:04:51.243Z,100366.44
2023-11-25T13:07:36.926Z,100373.16
2023-11-25T13:10:05.454Z,100375.81
2023-11-25T13:12:34.668Z,100387.91
2023-11-25T13:15:04.590Z,100383.34
2023-11-25T13:17:32.665Z,100391.22
2023-11-25T13:20:00.739Z,100387.94
2023-11-25T13:22:28.922Z,100385.22
2023-11-25T13:24:56.986Z,100385.78
2023-11-25T13:27:24.931Z,100399.72
2023-11-25T13:29:53.529Z,100396.31
2023-11-25T13:32:22.138Z,100406.63
2023-11-25T13:34:50.199Z,100405.00
2023-11-25T13:37:19.066Z,100410.03
2023-11-25T13:39:48.079Z,100422.56
2023-11-25T13:42:16.347Z,100423.06
2023-11-25T13:44:44.475Z,100430.59
2023-11-25T13:47:12.534Z,100431.47
2023-11-25T13:49:40.828Z,100438.19
2023-11-25T13:52:09.522Z,100439.78
2023-11-25T13:54:39.334Z,100439.06
2023-11-25T13:57:07.703Z,100434.94
2023-11-25T13:59:35.790Z,100438.53
2023-11-25T14:02:04.217Z,100430.88
2023-11-25T14:04:33.396Z,100429.44
2023-11-25T14:07:01.676Z,100440.16
2023-11-25T14:09:29.596Z,100435.66
2023-11-25T14:11:57.515Z,100428.16
2023-11-25T14:14:26.328Z,100442.16
2023-11-25T14:16:56.698Z,100446.63
2023-11-25T14:19:24.650Z,100444.25
2023-11-25T14:21:52.973Z,100453.84
2023-11-25T14:24:21.417Z,100454.88
2023-11-25T14:26:49.683Z,100462.09
2023-11-25T14:29:18.787Z,100470.09
2023-11-25T14:31:46.866Z,100475.31
2023-11-25T14:34:15.680Z,100474.69
2023-11-25T14:36:44.316Z,100486.81
2023-11-25T14:39:12.287Z,100488.50
2023-11-25T14:41:40.249Z,100486.91
2023-11-25T14:44:08.432Z,100495.72
2023-11-25T14:46:36.905Z,100490.53
2023-11-25T14:49:06.848Z,100501.31
2023-11-25T14:51:34.753Z,100513.47
2023-11-25T14:54:02.887Z,100515.19
2023-11-25T14:56:32.118Z,100519.66
2023-11-25T14:59:06.162Z,100519.72
2023-11-25T15:01:34.252Z,100533.72
2023-11-25T15:04:02.350Z,100530.31
2023-11-25T15:06:30.320Z,100533.13
2023-11-25T15:08:58.691Z,100544.41
2023-11-25T15:11:27.043Z,100552.44
2023-11-25T15:13:55.076Z,100554.44
2023-11-25T15:16:23.146Z,100563.25
2023-11-25T15:19:13.376Z,100564.22
2023-11-25T15:21:41.345Z,100568.34
2023-11-25T15:24:11.198Z,100584.06
2023-11-25T15:26:45.453Z,100594.38
2023-11-25T15:29:14.264Z,100600.47
2023-11-25T15:31:42.424Z,100610.31
2023-11-25T15:34:13.956Z,100619.97
2023-11-25T15:36:42.153Z,100626.22
2023-11-25T15:39:17.492Z,100631.81
2023-11-25T15:41:46.290Z,100629.72
2023-11-25T15:44:14.876Z,100636.97
2023-11-25T15:46:44.230Z,100645.91
2023-11-25T15:49:13.511Z,100652.13
2023-11-25T15:51:42.895Z,100657.41
2023-11-25T15:54:11.501Z,100666.16
2023-11-25T15:56:39.852Z,100674.88
2023-11-25T15:59:08.107Z,100685.34
2023-11-25T16:01:36.721Z,100690.47
2023-11-25T16:04:05.524Z,100689.59
2023-11-25T16:06:34.168Z,100692.19
2023-11-25T16:09:05.814Z,100689.63
2023-11-25T16:11:34.354Z,100700.88
2023-11-25T16:14:02.347Z,100712.09
2023-11-25T16:16:32.919Z,100718.25
2023-11-25T16:19:01.528Z,100720.81
2023-11-25T16:21:30.721Z,100716.38
2023-11-25T16:23:58.834Z,100734.56
2023-11-25T16:26:26.907Z,100732.00
2023-11-25T16:28:54.852Z,100732.03
2023-11-25T16:31:23.216Z,100732.91
2023-11-25T16:33:51.165Z,100729.50
2023-11-25T16:36:20.003Z,100733.09
2023-11-25T16:38:48.081Z,100735.72
2023-11-25T16:41:16.476Z,100748.03
2023-11-25T16:43:44.600Z,100747.28
2023-11-25T16:46:13.487Z,100744.84
2023-11-25T16:48:48.750Z,100746.78
2023-11-25T16:51:21.661Z,100746.22
2023-11-25T16:53:49.583Z,100748.03
2023-11-25T16:56:18.767Z,100747.38
2023-11-25T16:58:48.005Z,100742.41
2023-11-25T17:01:15.978Z,100735.66
2023-11-25T17:03:44.120Z,100740.91
2023-11-25T17:06:14.304Z,100744.50
2023-11-25T17:08:42.536Z,100737.81
2023-11-25T17:11:11.010Z,100742.19
2023-11-25T17:13:39.380Z,100742.41
2023-11-25T17:16:07.497Z,100741.72
2023-11-25T17:18:35.692Z,100741.84
2023-11-25T17:21:03.750Z,100757.41
2023-11-25T17:23:31.948Z,100752.41
2023-11-25T17:26:00.732Z,100750.75
2023-11-25T17:28:28.708Z,100755.22
2023-11-25T17:30:56.755Z,100756.16
2023-11-25T17:33:24.785Z,100754.56
2023-11-25T17:35:52.813Z,100759.75
2023-11-25T17:38:20.824Z,100765.00
2023-11-25T17:40:50.489Z,100768.50
2023-11-25T17:43:19.927Z,100769.47
2023-11-25T17:45:49.032Z,100772.94
2023-11-25T17:48:17.576Z,100768.69
2023-11-25T17:50:46.450Z,100779.13
2023-11-25T17:53:15.066Z,100777.44
2023-11-25T17:55:43.722Z,100775.75
2023-11-25T17:58:12.008Z,100780.09
2023-11-25T18:00:44.732Z,100789.69
2023-11-25T18:03:13.690Z,100796.63
2023-11-25T18:05:41.686Z,100799.16
2023-11-25T18:08:09.827Z,100790.66
2023-11-25T18:10:38.369Z,100788.16
2023-11-25T18:13:06.857Z,100784.75
2023-11-25T18:15:34.833Z,100791.66
2023-11-25T18:18:02.776Z,100789.09
2023-11-25T18:20:30.711Z,100786.53
2023-11-25T18:22:58.995Z,100776.19
2023-11-25T18:25:26.982Z,100785.72
2023-11-25T18:27:55.379Z,100791.88
2023-11-25T18:30:23.813Z,100798.78
2023-11-25T18:32:51.714Z,100803.97
2023-11-25T18:35:19.631Z,100803.13
2023-11-25T18:37:47.844Z,100804.94
2023-11-25T18:40:16.498Z,100805.06
2023-11-25T18:42:45.484Z,100810.28
2023-11-25T18:45:14.817Z,100807.69
2023-11-25T18:47:43.125Z,100809.47
2023-11-25T18:50:11.672Z,100813.78
2023-11-25T18:52:40.579Z,100823.31
2023-11-25T18:55:11.235Z,100838.88
2023-11-25T18:57:39.110Z,100844.94
2023-11-25T19:00:07.862Z,100854.38
2023-11-25T19:02:38.722Z,100854.38
2023-11-25T19:05:09.239Z,100850.94
2023-11-25T19:07:37.844Z,100854.44
2023-11-25T19:10:07.653Z,100859.59
2023-11-25T19:12:36.223Z,100864.81
2023-11-25T19:15:05.491Z,100860.59
2023-11-25T19:17:33.498Z,100856.28
2023-11-25T19:20:01.627Z,100856.31
2023-11-25T19:22:29.617Z,100864.94
2023-11-25T19:24:59.149Z,100864.97
2023-11-25T19:27:27.377Z,100862.44
2023-11-25T19:29:56.481Z,100867.63
2023-11-25T19:32:24.862Z,100868.50
2023-11-25T19:34:53.437Z,100863.28
2023-11-25T19:37:21.502Z,100866.72
2023-11-25T19:39:50.742Z,100872.66
2023-11-25T19:42:19.948Z,100882.94
2023-11-25T19:44:48.193Z,100884.53
2023-11-25T19:47:16.643Z,100888.72
2023-11-25T19:49:44.693Z,100893.84
2023-11-25T19:52:12.714Z,100892.94
2023-11-25T19:54:40.640Z,100908.41
2023-11-25T19:57:10.492Z,100891.94
2023-11-25T19:59:37.426Z,100897.16
2023-11-25T20:02:05.922Z,100897.94
2023-11-25T20:04:35.901Z,100893.63
2023-11-25T20:07:03.877Z,100898.78
2023-11-25T20:09:31.899Z,100903.97
2023-11-25T20:11:59.887Z,100895.28
2023-11-25T20:14:28.800Z,100898.78
2023-11-25T20:16:58.508Z,100900.53
2023-11-25T20:19:28.882Z,100896.22
2023-11-25T20:21:57.618Z,100899.66
2023-11-25T20:24:26.221Z,100896.22
2023-11-25T20:26:54.867Z,100897.13
2023-11-25T20:29:22.974Z,100888.47
2023-11-25T20:31:50.938Z,100895.28
2023-11-25T20:34:18.859Z,100895.28
2023-11-25T20:36:46.067Z,100891.81
2023-11-25T20:39:14.232Z,100897.81
2023-11-25T20:41:42.425Z,100895.09
2023-11-25T20:44:12.169Z,100898.53
2023-11-25T20:46:40.533Z,100902.88
2023-11-25T20:49:08.562Z,100896.81
2023-11-25T20:51:36.755Z,100902.88
2023-11-25T20:54:07.877Z,100903.75
2023-11-25T20:56:35.862Z,100902.94
2023-11-25T20:59:04.529Z,100908.22
2023-11-25T21:01:32.692Z,100909.16
2023-11-25T21:04:00.778Z,100916.03
2023-11-25T21:06:30.490Z,100922.13
2023-11-25T21:08:58.491Z,100920.44
2023-11-25T21:11:26.423Z,100910.03
2023-11-25T21:13:54.492Z,100910.03
2023-11-25T21:16:22.889Z,100912.66
2023-11-25T21:18:51.098Z,100918.75
2023-11-25T21:21:19.199Z,100911.00
2023-11-25T21:23:47.283Z,100911.06
2023-11-25T21:26:15.344Z,100913.63
2023-11-25T21:28:43.964Z,100908.53
2023-11-25T21:31:13.158Z,100906.81
2023-11-25T21:33:41.221Z,100905.22
2023-11-25T21:36:09.279Z,100906.16
2023-11-25T21:38:37.231Z,100908.72
2023-11-25T21:41:06.651Z,100901.81
2023-11-25T21:43:36.053Z,100907.84
2023-11-25T21:46:07.278Z,100921.72
2023-11-25T21:48:36.569Z,100921.66
2023-11-25T21:51:08.546Z,100932.00
2023-11-25T21:53:37.133Z,100922.53
2023-11-25T21:56:07.160Z,100928.56
2023-11-25T21:58:35.816Z,100922.56
2023-11-25T22:01:05.154Z,100937.31
2023-11-25T22:03:35.655Z,100933.84
2023-11-25T22:06:05.339Z,100934.78
2023-11-25T22:08:33.272Z,100937.41
2023-11-25T22:11:01.524Z,100941.75
2023-11-25T22:13:29.800Z,100940.94
2023-11-25T22:15:58.233Z,100946.22
2023-11-25T22:18:27.501Z,100945.38
2023-11-25T22:20:57.139Z,100947.94
2023-11-25T22:23:25.184Z,100937.63
2023-11-25T22:26:05.208Z,100942.78
2023-11-25T22:28:37.555Z,100947.97
2023-11-25T22:31:05.532Z,100945.44
2023-11-25T22:33:35.849Z,100954.88
2023-11-25T22:36:04.264Z,100954.00
2023-11-25T22:38:32.271Z,100954.88
2023-11-25T22:41:01.973Z,100953.19
2023-11-25T22:43:30.078Z,100960.16
2023-11-25T22:45:58.549Z,100958.47
2023-11-25T22:48:26.654Z,100955.03
2023-11-25T22:50:54.788Z,100958.47
2023-11-25T22:53:22.699Z,100958.47
2023-11-25T22:55:52.104Z,100954.16
2023-11-25T22:58:21.423Z,100968.78
2023-11-25T23:00:53.179Z,100962.78
2023-11-25T23:03:22.445Z,100966.19
2023-11-25T23:05:52.212Z,100973.97
2023-11-25T23:08:22.606Z,100972.19
2023-11-25T23:10:56.379Z,100973.09
2023-11-25T23:13:24.581Z,100972.28
2023-11-25T23:15:52.600Z,100974.88
2023-11-25T23:18:20.556Z,100977.47
2023-11-25T23:20:48.784Z,100971.44
2023-11-25T23:23:16.820Z,100968.00
2023-11-25T23:25:48.125Z,100973.13
2023-11-25T23:28:17.824Z,100976.59
2023-11-25T23:30:45.983Z,100967.22
2023-11-25T23:33:14.011Z,100962.91
2023-11-25T23:35:42.760Z,100959.47
2023-11-25T23:38:14.718Z,100961.22
2023-11-25T23:40:42.687Z,100959.59
2023-11-25T23:43:11.310Z,100960.47
2023-11-25T23:45:39.560Z,100965.63
2023-11-25T23:48:07.735Z,100971.66
2023-11-25T23:50:35.777Z,100966.53
2023-11-25T23:53:03.895Z,100968.22
2023-11-25T23:55:32.116Z,100967.38
2023-11-25T23:58:05.495Z,100962.28
